Weather at Protezione Civile Valtrigno

Public forecast

Using degrees Celsius for public forecast. Weather courtesy of forecast.io.

Closest aviation weather report (METAR) to Protezione Civile Valtrigno

Closest report is Abruzzo Airport, 37.4 nm (69.3 km) NNW.

2024/07/17 19:20 (retrieved 38 minutes ago)

LIBP 171920Z VRB01KT CAVOK 28/24 Q1014

Closest aviation forecast (TAF) to Protezione Civile Valtrigno

Closest forecast is Abruzzo Airport, 37.4 nm (69.3 km) NNW.

2024/07/17 18:21 (retrieved 2 hours ago)

TAF LIBP 171700Z 1718/1818 VRB05KT CAVOK BECMG 1808/1810 03010KT BECMG 1816/1818 VRB05KT